Terminal Aerodrome Forecast
Issued by NWS Portland, OR

Home | Current Version | Previous Version | Text Only | Print | Product List | Glossary On
Versions: 1 2 3 4 5 6 7 8 9 10 11 12 13 14 15 16 17 18 19 20 21 22 23 24 25 26 27 28 29 30 31 32 33
903
FTUS46 KPQR 050540
TAFSLE
TAF
KSLE 050540Z 0506/0606 34006KT P6SM BKN025 BKN035 OVC080
     FM050900 32005KT P6SM VCSH BKN025 OVC035
     FM051900 34010KT P6SM SCT030 BKN040
     FM060200 32010KT P6SM SCT030 BKN050=

USA.gov is the U.S. government's official web portal to all federal, state and local government web resources and services.